Time;durP1;ratioP1;P1;durP2;ratioP2;P2;SDS_P1;SDS_P2;PMS_P1;PMS_P2;Temp;Humidity;BMP_temperature;BMP_pressure;BME280_temperature;BME280_humidity;BME280_pressure;Samples;Min_cycle;Max_cycle;Signal;HPM_P1;HPM_P2
2021/11/26 00:00:59;;;;;;;41.42;21.63;;;2.90;68.60;;;;;;4996690;28;20207;-79
2021/11/26 00:03:26;;;;;;;37.95;21.70;;;2.90;68.30;;;;;;5010581;28;20206;-79
2021/11/26 00:05:53;;;;;;;37.78;21.15;;;2.90;68.40;;;;;;5009317;28;20207;-79
2021/11/26 00:08:19;;;;;;;40.60;21.98;;;2.80;68.50;;;;;;5000900;28;20231;-79
2021/11/26 00:10:46;;;;;;;38.53;21.98;;;2.80;68.40;;;;;;5007826;28;20226;-79
2021/11/26 00:13:13;;;;;;;40.72;21.77;;;2.80;68.60;;;;;;5007324;28;20218;-79
2021/11/26 00:15:42;;;;;;;38.83;21.60;;;2.80;68.80;;;;;;5007842;28;20218;-79
2021/11/26 00:18:16;;;;;;;35.53;20.15;;;2.80;69.80;;;;;;4998816;28;20588;-77
2021/11/26 00:20:43;;;;;;;45.70;21.40;;;2.80;69.20;;;;;;4995349;28;20539;-77
2021/11/26 00:23:09;;;;;;;40.35;19.95;;;2.80;68.60;;;;;;4995191;28;20223;-78
2021/11/26 00:25:37;;;;;;;37.20;21.05;;;2.80;68.80;;;;;;5015396;28;20213;-77
2021/11/26 00:28:04;;;;;;;38.88;22.23;;;2.80;68.60;;;;;;5009735;28;20329;-77
2021/11/26 00:30:32;;;;;;;46.53;23.70;;;2.80;68.70;;;;;;4999211;28;20230;-79
2021/11/26 00:33:01;;;;;;;38.88;20.58;;;2.80;69.00;;;;;;4996568;28;20204;-78
2021/11/26 00:35:28;;;;;;;40.15;21.90;;;2.90;69.20;;;;;;5004432;28;20300;-78
2021/11/26 00:37:55;;;;;;;36.30;19.55;;;2.90;68.50;;;;;;5015448;28;20218;-77
2021/11/26 00:40:21;;;;;;;39.33;22.33;;;2.90;68.20;;;;;;5034483;23;20243;-76
2021/11/26 00:42:48;;;;;;;39.67;21.52;;;2.90;68.60;;;;;;5015840;28;20207;-77
2021/11/26 00:45:16;;;;;;;38.92;22.23;;;2.90;68.40;;;;;;5016097;28;20213;-77
2021/11/26 00:47:44;;;;;;;41.88;22.45;;;2.90;68.40;;;;;;5033826;28;20217;-77
2021/11/26 00:50:15;;;;;;;38.85;21.42;;;2.90;68.30;;;;;;5034956;28;20236;-77
2021/11/26 00:52:42;;;;;;;41.25;21.65;;;2.80;68.10;;;;;;5035150;28;20204;-78
2021/11/26 00:55:10;;;;;;;37.85;22.23;;;2.90;68.00;;;;;;5016431;28;20276;-77
2021/11/26 00:57:38;;;;;;;35.53;21.45;;;2.80;68.10;;;;;;5015426;28;20302;-77
2021/11/26 01:00:07;;;;;;;38.60;20.38;;;2.80;68.40;;;;;;5015002;28;20227;-78
2021/11/26 01:02:34;;;;;;;39.33;20.92;;;2.90;68.30;;;;;;5015358;28;20216;-78
2021/11/26 01:05:00;;;;;;;34.47;19.70;;;2.90;68.10;;;;;;5015735;28;20214;-76
2021/11/26 01:07:29;;;;;;;39.97;21.45;;;2.80;68.10;;;;;;5015639;28;20210;-77
2021/11/26 01:09:55;;;;;;;40.88;21.65;;;2.80;68.30;;;;;;5034891;28;20226;-77
2021/11/26 01:12:22;;;;;;;42.63;22.42;;;2.90;68.40;;;;;;5043064;28;20213;-77
2021/11/26 01:14:49;;;;;;;37.03;21.17;;;2.80;68.30;;;;;;5049888;28;20212;-77
2021/11/26 01:17:16;;;;;;;45.97;24.00;;;2.80;68.60;;;;;;5049766;28;20210;-77
2021/11/26 01:19:45;;;;;;;42.85;21.55;;;2.80;68.40;;;;;;5039885;28;20223;-77
2021/11/26 01:22:12;;;;;;;42.47;22.02;;;2.90;68.00;;;;;;5028184;28;20241;-76
2021/11/26 01:24:40;;;;;;;36.30;20.33;;;2.90;68.10;;;;;;5038881;28;20249;-77
2021/11/26 01:27:07;;;;;;;37.40;21.27;;;2.80;68.30;;;;;;5034208;28;20570;-77
2021/11/26 01:29:34;;;;;;;41.40;23.00;;;2.90;68.40;;;;;;5034933;28;20280;-78
2021/11/26 01:32:01;;;;;;;45.45;21.67;;;2.80;68.40;;;;;;5035426;28;20284;-78
2021/11/26 01:34:28;;;;;;;40.42;21.75;;;2.80;68.10;;;;;;5024083;28;20217;-77
2021/11/26 01:36:55;;;;;;;39.88;21.45;;;2.80;67.90;;;;;;5015393;28;20221;-77
2021/11/26 01:39:22;;;;;;;39.80;21.08;;;2.80;68.30;;;;;;5035115;28;20324;-77
2021/11/26 01:41:51;;;;;;;42.17;22.08;;;2.90;68.30;;;;;;5027578;28;20600;-77
2021/11/26 01:44:19;;;;;;;39.90;21.60;;;2.90;67.70;;;;;;5020414;28;20219;-76
2021/11/26 01:46:46;;;;;;;36.80;21.92;;;2.80;67.50;;;;;;5015106;28;20632;-78
2021/11/26 01:49:14;;;;;;;43.72;21.63;;;2.90;67.80;;;;;;5031495;28;20266;-77
2021/11/26 01:51:41;;;;;;;34.03;20.58;;;2.90;67.60;;;;;;5039966;28;20331;-77
2021/11/26 01:54:09;;;;;;;39.40;22.98;;;2.90;67.50;;;;;;5034488;28;20225;-77
2021/11/26 01:56:36;;;;;;;36.30;20.50;;;2.90;67.40;;;;;;5023413;28;20207;-77
2021/11/26 01:59:05;;;;;;;40.05;20.58;;;2.90;67.20;;;;;;5015156;28;20719;-75
2021/11/26 02:01:32;;;;;;;39.42;21.75;;;3.00;67.40;;;;;;5033866;28;20209;-78
2021/11/26 02:03:59;;;;;;;41.80;21.17;;;3.00;67.00;;;;;;5034252;28;20224;-77
2021/11/26 02:06:26;;;;;;;40.83;22.13;;;3.00;67.30;;;;;;5034489;28;20210;-77
2021/11/26 02:08:53;;;;;;;36.05;19.92;;;3.00;67.00;;;;;;5034838;28;20225;-78
2021/11/26 02:11:21;;;;;;;48.95;23.95;;;2.90;67.30;;;;;;5023315;28;20481;-79
2021/11/26 02:13:49;;;;;;;41.08;22.90;;;2.90;67.40;;;;;;5025990;28;20198;-74
2021/11/26 02:16:17;;;;;;;40.25;22.48;;;2.90;67.80;;;;;;5035339;28;20234;-76
2021/11/26 02:18:47;;;;;;;43.40;22.08;;;2.80;68.20;;;;;;5046441;28;20229;-77
2021/11/26 02:21:16;;;;;;;44.72;22.00;;;2.80;68.40;;;;;;5032696;28;20214;-75
2021/11/26 02:23:43;;;;;;;43.30;21.88;;;2.90;68.00;;;;;;5014669;28;20214;-78
2021/11/26 02:26:10;;;;;;;40.78;21.60;;;2.90;68.10;;;;;;5027416;28;20200;-78
2021/11/26 02:28:37;;;;;;;37.17;20.77;;;2.80;68.10;;;;;;5039044;28;20394;-78
2021/11/26 02:31:04;;;;;;;35.22;20.00;;;2.80;68.40;;;;;;5036940;28;20580;-77
2021/11/26 02:33:30;;;;;;;41.90;22.73;;;2.80;68.50;;;;;;5029819;28;20221;-76
2021/11/26 02:35:59;;;;;;;37.65;20.65;;;2.70;68.90;;;;;;5017341;28;20225;-77
2021/11/26 02:38:28;;;;;;;39.08;20.10;;;2.60;69.40;;;;;;5035256;28;20214;-76
2021/11/26 02:40:56;;;;;;;39.13;21.35;;;2.60;69.70;;;;;;5035654;28;20221;-77
2021/11/26 02:43:23;;;;;;;42.70;23.42;;;2.60;70.10;;;;;;5036026;28;20220;-78
2021/11/26 02:45:51;;;;;;;37.25;20.52;;;2.60;69.90;;;;;;5035548;28;20218;-76
2021/11/26 02:48:17;;;;;;;42.58;22.58;;;2.70;69.30;;;;;;5022801;28;20211;-77
2021/11/26 02:50:46;;;;;;;41.15;22.13;;;2.70;68.30;;;;;;5017387;28;20822;-77
2021/11/26 02:53:13;;;;;;;37.72;20.95;;;2.80;68.30;;;;;;5037951;28;20214;-76
2021/11/26 02:55:41;;;;;;;36.10;20.77;;;2.80;68.10;;;;;;5040491;28;20217;-78
2021/11/26 02:58:09;;;;;;;34.97;20.60;;;2.80;67.90;;;;;;5049131;28;20225;-77
2021/11/26 03:00:39;;;;;;;38.92;21.88;;;2.80;67.70;;;;;;5033322;28;20290;-77
2021/11/26 03:03:06;;;;;;;42.05;21.50;;;2.80;67.50;;;;;;5032454;28;20221;-77
2021/11/26 03:05:33;;;;;;;43.90;22.02;;;2.80;67.70;;;;;;5024454;28;20198;-77
2021/11/26 03:08:00;;;;;;;36.85;20.45;;;2.80;68.10;;;;;;5040606;28;20209;-77
2021/11/26 03:10:29;;;;;;;41.70;22.25;;;2.70;68.00;;;;;;5037373;28;20223;-77
2021/11/26 03:13:01;;;;;;;39.35;22.67;;;2.70;67.90;;;;;;5035848;28;20211;-75
2021/11/26 03:15:29;;;;;;;41.70;20.65;;;2.70;68.10;;;;;;5037989;28;20697;-77
2021/11/26 03:17:56;;;;;;;38.70;20.58;;;2.80;68.40;;;;;;5055182;28;20301;-76
2021/11/26 03:20:25;;;;;;;37.63;21.20;;;2.70;67.70;;;;;;5051291;28;20228;-77
2021/11/26 03:22:52;;;;;;;36.75;20.80;;;2.80;68.10;;;;;;5033431;28;20206;-76
2021/11/26 03:25:19;;;;;;;38.92;21.75;;;2.80;68.00;;;;;;5017088;28;20224;-76
2021/11/26 03:27:47;;;;;;;42.97;22.33;;;2.70;67.80;;;;;;5017056;28;20694;-77
2021/11/26 03:30:17;;;;;;;41.80;20.83;;;2.70;68.50;;;;;;5035238;28;20230;-77
2021/11/26 03:32:44;;;;;;;44.65;20.90;;;2.70;69.00;;;;;;5032244;28;20229;-77
2021/11/26 03:35:12;;;;;;;37.67;20.85;;;2.70;68.90;;;;;;5017311;28;20211;-76
2021/11/26 03:37:39;;;;;;;42.47;22.42;;;2.80;68.80;;;;;;5017088;28;20297;-77
2021/11/26 03:40:08;;;;;;;38.53;20.88;;;2.80;68.20;;;;;;5017488;28;20234;-76
2021/11/26 03:42:35;;;;;;;41.67;21.38;;;2.80;68.20;;;;;;5016475;28;20200;-77
2021/11/26 03:45:03;;;;;;;42.30;21.75;;;2.80;67.90;;;;;;5036765;28;20207;-76
2021/11/26 03:47:31;;;;;;;40.75;22.98;;;2.80;68.70;;;;;;5035965;28;20410;-78
2021/11/26 03:49:58;;;;;;;38.15;21.33;;;2.80;68.00;;;;;;5036566;28;20253;-77
2021/11/26 03:52:25;;;;;;;42.20;21.88;;;2.80;68.30;;;;;;5038875;28;20226;-77
2021/11/26 03:54:52;;;;;;;42.70;21.90;;;2.70;68.80;;;;;;5039935;28;20203;-78
2021/11/26 03:57:18;;;;;;;47.17;21.77;;;2.70;69.10;;;;;;5028365;28;20214;-77
2021/11/26 03:59:45;;;;;;;35.05;21.35;;;2.70;68.80;;;;;;5045157;28;20232;-76
2021/11/26 04:02:12;;;;;;;46.08;22.48;;;2.70;68.80;;;;;;5044816;28;20206;-77
2021/11/26 04:04:40;;;;;;;44.95;23.20;;;2.70;68.50;;;;;;5035052;28;20205;-79
2021/11/26 04:07:07;;;;;;;43.13;21.77;;;2.70;68.40;;;;;;5035495;28;20217;-77
2021/11/26 04:09:34;;;;;;;43.22;23.30;;;2.80;68.40;;;;;;5045201;28;20228;-77
2021/11/26 04:12:01;;;;;;;43.63;22.88;;;2.70;68.50;;;;;;5043817;28;20225;-77
2021/11/26 04:14:28;;;;;;;46.95;23.05;;;2.60;68.70;;;;;;5026015;28;20217;-78
2021/11/26 04:16:55;;;;;;;41.45;23.00;;;2.60;69.50;;;;;;5035034;28;20203;-77
2021/11/26 04:19:22;;;;;;;46.58;22.77;;;2.70;70.00;;;;;;5035065;28;20236;-78
2021/11/26 04:21:50;;;;;;;42.00;21.77;;;2.70;70.10;;;;;;5035894;28;20205;-75
2021/11/26 04:24:19;;;;;;;39.55;20.60;;;2.70;70.20;;;;;;5035331;28;20214;-77
2021/11/26 04:26:45;;;;;;;42.53;21.88;;;2.70;70.60;;;;;;5035721;28;20229;-77
2021/11/26 04:29:12;;;;;;;41.55;23.23;;;2.70;70.60;;;;;;5034923;28;20226;-78
2021/11/26 04:31:41;;;;;;;41.10;22.25;;;2.60;70.70;;;;;;5034600;28;20405;-78
2021/11/26 04:34:08;;;;;;;36.97;21.95;;;2.60;71.00;;;;;;5015631;28;20211;-77
2021/11/26 04:36:35;;;;;;;47.00;24.13;;;2.60;71.00;;;;;;5025783;28;20210;-79
2021/11/26 04:39:04;;;;;;;47.78;23.55;;;2.60;71.00;;;;;;5034370;28;20741;-80
2021/11/26 04:41:31;;;;;;;41.80;24.02;;;2.60;71.00;;;;;;5034765;28;20212;-77
2021/11/26 04:43:58;;;;;;;42.85;21.60;;;2.60;71.00;;;;;;5034614;28;20689;-77
2021/11/26 04:46:24;;;;;;;44.10;23.42;;;2.60;71.00;;;;;;5034544;28;20701;-79
2021/11/26 04:48:51;;;;;;;45.30;23.80;;;2.70;71.00;;;;;;5018398;28;20230;-77
2021/11/26 04:51:18;;;;;;;42.47;23.38;;;2.70;70.20;;;;;;5030833;28;20236;-77
2021/11/26 04:53:45;;;;;;;44.28;22.58;;;2.70;69.50;;;;;;5035967;28;20264;-78
2021/11/26 04:56:13;;;;;;;40.60;21.83;;;2.60;68.70;;;;;;5038314;28;20224;-78
2021/11/26 04:58:40;;;;;;;42.72;21.83;;;2.60;69.30;;;;;;5027932;28;20255;-78
2021/11/26 05:01:07;;;;;;;44.20;24.35;;;2.70;69.10;;;;;;5019081;28;20213;-76
2021/11/26 05:03:34;;;;;;;38.70;22.70;;;2.50;69.10;;;;;;5042987;28;20235;-79
2021/11/26 05:06:01;;;;;;;46.13;23.48;;;2.50;70.20;;;;;;5042178;28;20205;-78
2021/11/26 05:08:28;;;;;;;40.00;23.17;;;2.40;70.00;;;;;;5043002;28;20209;-77
2021/11/26 05:10:55;;;;;;;43.38;22.50;;;2.40;70.80;;;;;;5023028;28;20213;-77
2021/11/26 05:13:26;;;;;;;41.28;22.17;;;2.40;70.80;;;;;;5034490;28;20209;-78
2021/11/26 05:15:53;;;;;;;41.40;22.45;;;2.40;70.80;;;;;;5040529;28;20212;-78
2021/11/26 05:18:23;;;;;;;43.55;23.75;;;2.40;70.70;;;;;;5045577;28;20208;-78
2021/11/26 05:20:51;;;;;;;40.47;20.83;;;2.30;70.70;;;;;;5035535;28;20209;-77
2021/11/26 05:23:18;;;;;;;47.60;25.30;;;2.30;70.70;;;;;;5017280;28;20204;-78
2021/11/26 05:25:45;;;;;;;45.13;22.52;;;2.30;70.90;;;;;;5034986;28;20219;-77
2021/11/26 05:28:12;;;;;;;42.63;21.25;;;2.30;71.80;;;;;;5023543;28;20205;-79
2021/11/26 05:30:40;;;;;;;38.72;21.48;;;2.40;71.90;;;;;;5016451;28;20275;-78
2021/11/26 05:33:07;;;;;;;44.35;23.02;;;2.40;72.00;;;;;;5023854;28;20244;-78
2021/11/26 05:35:34;;;;;;;42.72;23.10;;;2.50;70.90;;;;;;5022745;28;20292;-77
2021/11/26 05:38:02;;;;;;;39.85;23.02;;;2.50;70.90;;;;;;5025499;28;20277;-80
2021/11/26 05:40:28;;;;;;;47.97;23.67;;;2.60;71.00;;;;;;5044489;28;20842;-78
2021/11/26 05:42:55;;;;;;;47.35;22.45;;;2.60;71.00;;;;;;5026066;28;20668;-78
2021/11/26 05:45:22;;;;;;;39.70;21.10;;;2.60;71.00;;;;;;5015435;28;20218;-76
2021/11/26 05:47:50;;;;;;;43.00;21.33;;;2.60;71.00;;;;;;5034981;28;20222;-78
2021/11/26 05:50:19;;;;;;;40.78;20.77;;;2.70;71.00;;;;;;5023578;28;20238;-78
2021/11/26 05:52:46;;;;;;;38.67;20.98;;;2.60;69.90;;;;;;5032507;28;20225;-77
2021/11/26 05:55:18;;;;;;;46.85;22.77;;;2.60;70.30;;;;;;5013438;28;20209;-77
2021/11/26 05:57:45;;;;;;;38.05;19.95;;;2.60;71.00;;;;;;5024627;28;20272;-77
2021/11/26 06:00:14;;;;;;;47.05;21.17;;;2.60;70.20;;;;;;5031275;28;20620;-77
2021/11/26 06:02:41;;;;;;;38.15;20.40;;;2.60;70.40;;;;;;5013067;28;20210;-77
2021/11/26 06:05:10;;;;;;;42.53;20.88;;;2.60;70.30;;;;;;5033031;28;20228;-77
2021/11/26 06:07:37;;;;;;;40.13;20.80;;;2.60;70.30;;;;;;5032457;28;20234;-78
2021/11/26 06:10:05;;;;;;;40.47;22.05;;;2.50;70.90;;;;;;5014245;28;20255;-79
2021/11/26 06:12:32;;;;;;;39.38;21.00;;;2.60;71.00;;;;;;5014304;28;20228;-77
2021/11/26 06:14:59;;;;;;;42.95;22.63;;;2.60;71.00;;;;;;5014091;28;20209;-76
2021/11/26 06:17:25;;;;;;;41.10;21.60;;;2.60;71.00;;;;;;5014622;28;20588;-76
2021/11/26 06:19:52;;;;;;;44.72;23.80;;;2.60;71.00;;;;;;5014485;28;20788;-78
2021/11/26 06:22:20;;;;;;;38.15;21.40;;;2.50;70.90;;;;;;5014196;28;20208;-78
2021/11/26 06:24:47;;;;;;;40.40;21.20;;;2.50;70.90;;;;;;5014385;28;20218;-78
2021/11/26 06:27:14;;;;;;;42.53;22.02;;;2.60;71.00;;;;;;5015809;28;20206;-77
2021/11/26 06:29:41;;;;;;;43.10;23.23;;;2.60;71.10;;;;;;5023932;28;20232;-76
2021/11/26 06:32:08;;;;;;;40.35;22.10;;;2.60;71.00;;;;;;5037760;28;20232;-77
2021/11/26 06:34:35;;;;;;;41.63;21.23;;;2.60;71.00;;;;;;5021755;28;20218;-77
2021/11/26 06:37:02;;;;;;;38.22;21.98;;;2.50;70.90;;;;;;5016938;28;20205;-76
2021/11/26 06:39:30;;;;;;;41.72;21.77;;;2.50;70.90;;;;;;5036858;23;20228;-79
2021/11/26 06:41:58;;;;;;;39.78;21.55;;;2.60;71.90;;;;;;5021887;28;20211;-79
2021/11/26 06:44:25;;;;;;;39.65;21.48;;;2.50;71.90;;;;;;5030922;28;20213;-79
2021/11/26 06:46:53;;;;;;;42.83;22.08;;;2.50;72.20;;;;;;5032691;28;20240;-79
2021/11/26 06:49:20;;;;;;;36.83;19.73;;;2.50;72.40;;;;;;5009918;28;20245;-78
2021/11/26 06:51:47;;;;;;;46.35;22.95;;;2.60;71.80;;;;;;4996544;28;20298;-79
2021/11/26 06:54:14;;;;;;;38.88;21.75;;;2.50;72.20;;;;;;5011894;28;20208;-80
2021/11/26 06:56:42;;;;;;;36.63;21.00;;;2.60;72.00;;;;;;5016535;28;20225;-78
2021/11/26 06:59:09;;;;;;;41.95;21.98;;;2.50;71.90;;;;;;5015866;28;20229;-79
2021/11/26 07:01:35;;;;;;;43.45;22.13;;;2.50;71.80;;;;;;5016615;28;20201;-77
2021/11/26 07:04:02;;;;;;;39.97;22.48;;;2.50;72.10;;;;;;5022439;28;20215;-79
2021/11/26 07:06:30;;;;;;;39.60;21.63;;;2.60;72.10;;;;;;5016691;28;20279;-80
2021/11/26 07:08:57;;;;;;;47.15;22.05;;;2.60;71.30;;;;;;5014814;28;20230;-79
2021/11/26 07:11:23;;;;;;;41.00;22.17;;;2.50;70.90;;;;;;5019967;28;20213;-77
2021/11/26 07:13:52;;;;;;;48.05;23.20;;;2.50;71.70;;;;;;5015881;28;20229;-78
2021/11/26 07:16:19;;;;;;;44.78;21.85;;;2.50;71.80;;;;;;5016427;28;20239;-79
2021/11/26 07:18:46;;;;;;;37.97;22.17;;;2.50;72.10;;;;;;5001704;28;20221;-79
2021/11/26 07:21:13;;;;;;;45.25;21.50;;;2.60;72.00;;;;;;5008264;28;20222;-76
2021/11/26 07:23:40;;;;;;;43.85;25.90;;;2.60;71.50;;;;;;5019142;28;20212;-81
2021/11/26 07:26:08;;;;;;;42.95;22.38;;;2.60;71.00;;;;;;5016624;28;20226;-79
2021/11/26 07:28:35;;;;;;;47.05;22.02;;;2.60;71.00;;;;;;5010899;28;20209;-76
2021/11/26 07:31:03;;;;;;;38.95;21.80;;;2.70;71.00;;;;;;5011680;28;20210;-78
2021/11/26 07:33:29;;;;;;;36.72;21.20;;;2.70;71.00;;;;;;5009828;28;20749;-80
2021/11/26 07:35:56;;;;;;;39.38;21.30;;;2.80;71.10;;;;;;5005167;28;20202;-80
2021/11/26 07:38:23;;;;;;;42.72;23.00;;;2.80;70.70;;;;;;5025244;28;20209;-80
2021/11/26 07:40:52;;;;;;;39.42;22.27;;;2.80;70.10;;;;;;5016455;28;20246;-78
2021/11/26 07:43:19;;;;;;;40.40;21.35;;;2.80;70.20;;;;;;5012472;28;20221;-78
2021/11/26 07:45:50;;;;;;;47.60;21.20;;;2.80;70.10;;;;;;5012756;28;20277;-80
2021/11/26 07:48:19;;;;;;;43.80;22.50;;;2.80;70.60;;;;;;5017717;28;20207;-79
2021/11/26 07:50:49;;;;;;;43.08;22.70;;;2.80;69.80;;;;;;5017494;28;20231;-79
2021/11/26 07:53:16;;;;;;;39.33;22.50;;;2.80;70.20;;;;;;5012779;28;20230;-79
2021/11/26 07:55:43;;;;;;;41.53;22.80;;;2.80;70.40;;;;;;5007259;28;20206;-78
2021/11/26 07:58:11;;;;;;;44.40;22.20;;;2.80;70.50;;;;;;5015303;28;20697;-78
2021/11/26 08:00:38;;;;;;;40.05;21.55;;;2.80;69.90;;;;;;5007511;28;20228;-77
2021/11/26 08:03:06;;;;;;;48.85;24.13;;;2.90;70.20;;;;;;5015895;28;20214;-78
2021/11/26 08:05:34;;;;;;;43.70;22.17;;;2.90;69.70;;;;;;4996752;28;20691;-79
2021/11/26 08:08:08;;;;;;;38.20;22.13;;;3.00;69.30;;;;;;5000802;28;20220;-79
2021/11/26 08:10:36;;;;;;;37.25;20.90;;;3.10;68.20;;;;;;5020324;28;20307;-78
2021/11/26 08:13:03;;;;;;;39.35;21.52;;;3.10;67.10;;;;;;5018677;28;20233;-76
2021/11/26 08:15:32;;;;;;;44.80;22.45;;;3.10;67.00;;;;;;5011235;28;20211;-79
2021/11/26 08:17:59;;;;;;;38.33;21.85;;;3.10;66.70;;;;;;5001518;28;20210;-79
2021/11/26 08:20:27;;;;;;;39.85;20.73;;;3.10;66.90;;;;;;5001618;28;20643;-80
2021/11/26 08:22:56;;;;;;;37.45;20.98;;;3.20;66.20;;;;;;5006742;28;20228;-80
2021/11/26 08:25:26;;;;;;;37.50;21.42;;;3.20;65.70;;;;;;5021137;28;20215;-77
2021/11/26 08:27:54;;;;;;;37.85;20.27;;;3.20;65.20;;;;;;5020000;28;20208;-78
2021/11/26 08:30:22;;;;;;;38.40;21.02;;;3.20;65.70;;;;;;5001152;28;20222;-77
2021/11/26 08:32:50;;;;;;;37.65;20.13;;;3.30;65.10;;;;;;4999181;28;20232;-78
2021/11/26 08:35:17;;;;;;;40.88;19.80;;;3.20;65.40;;;;;;5013760;28;20230;-77
2021/11/26 08:37:44;;;;;;;36.72;21.73;;;3.30;65.60;;;;;;5022750;28;20211;-77
2021/11/26 08:40:17;;;;;;;37.83;20.80;;;3.30;65.50;;;;;;5005637;28;20241;-78
2021/11/26 08:42:47;;;;;;;35.95;20.17;;;3.30;65.40;;;;;;5002949;28;20250;-78
2021/11/26 08:45:14;;;;;;;35.47;19.33;;;3.40;65.00;;;;;;5016993;28;20211;-78
2021/11/26 08:47:42;;;;;;;35.50;20.10;;;3.50;64.80;;;;;;5017270;28;20206;-78
2021/11/26 08:50:14;;;;;;;32.28;18.70;;;3.60;63.10;;;;;;5018737;28;20253;-77
2021/11/26 08:52:40;;;;;;;32.97;19.15;;;3.70;63.20;;;;;;5028369;28;20579;-77
2021/11/26 08:55:11;;;;;;;33.65;19.55;;;3.70;62.30;;;;;;5014112;28;20275;-77
2021/11/26 08:57:42;;;;;;;35.40;18.95;;;3.70;62.00;;;;;;5012034;28;20211;-82
2021/11/26 09:00:11;;;;;;;29.80;17.48;;;3.80;61.50;;;;;;5010078;28;20252;-81
2021/11/26 09:02:38;;;;;;;32.70;18.10;;;3.70;60.80;;;;;;5021920;28;20341;-79
2021/11/26 09:05:05;;;;;;;31.95;18.70;;;3.70;61.30;;;;;;5019392;28;20547;-79
2021/11/26 09:07:33;;;;;;;34.33;19.30;;;3.80;60.60;;;;;;5017283;28;20253;-80
2021/11/26 09:09:59;;;;;;;28.92;17.48;;;3.80;60.60;;;;;;5021367;28;20293;-79
2021/11/26 09:12:29;;;;;;;27.98;16.52;;;3.90;60.70;;;;;;5011723;28;20215;-76
2021/11/26 09:14:57;;;;;;;32.05;18.50;;;4.00;60.40;;;;;;5011418;28;20242;-79
2021/11/26 09:17:24;;;;;;;34.65;18.95;;;4.00;59.90;;;;;;5009819;28;20216;-80
2021/11/26 09:19:51;;;;;;;28.95;17.80;;;4.10;60.10;;;;;;5009782;28;20258;-78
2021/11/26 09:22:18;;;;;;;35.95;19.70;;;4.10;59.70;;;;;;5010322;28;20221;-81
2021/11/26 09:24:48;;;;;;;30.45;17.52;;;4.10;59.40;;;;;;5006609;28;20283;-80
2021/11/26 09:27:15;;;;;;;31.05;17.70;;;4.20;60.00;;;;;;5005134;28;20281;-81
2021/11/26 09:29:45;;;;;;;30.38;16.70;;;4.30;59.30;;;;;;5003067;28;20321;-81
2021/11/26 09:32:13;;;;;;;37.85;19.23;;;4.40;58.90;;;;;;5001740;28;20215;-80
2021/11/26 09:34:43;;;;;;;29.70;18.10;;;4.30;58.60;;;;;;5018911;28;20331;-81
2021/11/26 09:37:11;;;;;;;31.67;18.65;;;4.30;58.50;;;;;;5022322;28;20203;-80
2021/11/26 09:39:38;;;;;;;28.67;17.65;;;4.30;58.20;;;;;;4999695;28;20235;-79
2021/11/26 09:42:07;;;;;;;32.58;18.83;;;4.40;58.40;;;;;;4996680;28;20211;-80
2021/11/26 09:44:35;;;;;;;32.60;17.73;;;4.40;58.00;;;;;;5008916;28;20215;-83
2021/11/26 09:47:03;;;;;;;30.95;18.40;;;4.40;57.90;;;;;;5018333;28;20207;-83
2021/11/26 09:49:31;;;;;;;29.45;17.63;;;4.50;58.10;;;;;;5002986;28;20626;-85
2021/11/26 09:51:59;;;;;;;32.22;19.25;;;4.60;57.40;;;;;;5002536;28;20299;-84
2021/11/26 09:54:27;;;;;;;33.58;19.30;;;4.70;57.20;;;;;;4997468;28;20227;-79
2021/11/26 09:56:55;;;;;;;36.22;21.25;;;4.60;57.20;;;;;;4998116;28;20216;-84
2021/11/26 09:59:22;;;;;;;33.88;18.73;;;4.50;57.50;;;;;;5000672;28;20231;-81
2021/11/26 10:01:49;;;;;;;31.80;19.90;;;4.50;57.70;;;;;;4995324;28;20212;-79
2021/11/26 10:04:18;;;;;;;33.72;19.92;;;4.60;57.30;;;;;;4997187;28;20200;-83
2021/11/26 10:06:48;;;;;;;36.50;21.17;;;4.60;57.20;;;;;;5016502;28;20281;-81
2021/11/26 10:09:18;;;;;;;37.97;21.42;;;4.70;57.50;;;;;;5021863;28;20297;-81
2021/11/26 10:11:48;;;;;;;33.70;19.85;;;4.70;56.90;;;;;;4999350;28;20218;-83
2021/11/26 10:14:20;;;;;;;33.60;19.70;;;4.80;56.90;;;;;;4996888;28;20220;-78
2021/11/26 10:16:49;;;;;;;37.53;21.15;;;4.70;56.40;;;;;;5019471;28;20310;-80
2021/11/26 10:19:16;;;;;;;31.35;19.17;;;4.60;58.20;;;;;;5017808;28;20230;-81
2021/11/26 10:21:44;;;;;;;36.33;20.00;;;4.60;57.20;;;;;;5017138;28;20204;-82
2021/11/26 10:24:18;;;;;;;34.35;19.38;;;4.60;57.60;;;;;;5018302;28;20208;-82
2021/11/26 10:26:54;;;;;;;40.08;19.92;;;4.60;57.70;;;;;;5000591;28;20249;-82
2021/11/26 10:29:33;;;;;;;35.08;20.42;;;4.60;57.80;;;;;;5000761;28;20224;-83
2021/11/26 10:32:07;;;;;;;33.30;18.95;;;4.70;57.40;;;;;;4998314;28;20212;-80
2021/11/26 10:34:35;;;;;;;44.15;20.90;;;4.70;57.80;;;;;;5003632;28;20279;-80
2021/11/26 10:37:04;;;;;;;33.25;18.77;;;4.70;57.90;;;;;;5018803;28;20566;-78
2021/11/26 10:39:35;;;;;;;38.78;21.65;;;4.70;58.30;;;;;;5015965;28;20741;-80
2021/11/26 10:42:02;;;;;;;36.03;19.05;;;4.70;58.40;;;;;;5020852;28;20199;-80
2021/11/26 10:44:48;;;;;;;41.97;19.85;;;4.80;58.20;;;;;;5013052;28;20204;-80
2021/11/26 10:47:21;;;;;;;39.05;19.90;;;4.80;58.30;;;;;;5006534;28;20226;-80
2021/11/26 10:52:55;;;;;;;36.80;18.85;;;4.80;58.10;;;;;;5023177;28;20200;-81
2021/11/26 11:01:03;;;;;;;40.83;22.75;;;4.80;58.50;;;;;;4996379;28;20776;-79
2021/11/26 11:03:30;;;;;;;33.92;19.65;;;4.90;58.30;;;;;;5015566;28;20686;-79
2021/11/26 11:05:57;;;;;;;32.67;19.02;;;4.90;58.20;;;;;;5014722;28;20227;-79
2021/11/26 11:08:25;;;;;;;35.50;21.30;;;4.80;58.00;;;;;;5017248;28;20559;-80
2021/11/26 11:10:55;;;;;;;38.22;22.48;;;4.90;57.70;;;;;;5005853;28;20232;-82
2021/11/26 11:13:27;;;;;;;38.58;21.35;;;4.80;57.70;;;;;;5010766;28;20223;-79
2021/11/26 11:16:03;;;;;;;38.13;22.48;;;4.80;58.20;;;;;;5012613;28;20543;-80
2021/11/26 11:18:33;;;;;;;43.92;23.45;;;4.90;58.50;;;;;;5019410;28;20275;-80
2021/11/26 11:21:01;;;;;;;37.97;21.35;;;5.00;58.10;;;;;;5008621;28;20655;-81
2021/11/26 11:23:28;;;;;;;39.05;20.58;;;5.10;57.80;;;;;;5018333;28;20676;-79
2021/11/26 11:25:59;;;;;;;35.53;20.42;;;5.20;57.70;;;;;;5031529;28;20223;-81
2021/11/26 11:28:26;;;;;;;36.33;20.38;;;5.10;57.10;;;;;;5023006;28;20287;-80
2021/11/26 11:30:55;;;;;;;41.10;22.33;;;5.10;57.50;;;;;;5023491;28;20236;-80
2021/11/26 11:33:24;;;;;;;36.80;21.42;;;5.10;57.30;;;;;;5007762;28;20224;-81
2021/11/26 11:35:52;;;;;;;35.65;19.48;;;5.10;57.00;;;;;;5011064;28;20263;-81
2021/11/26 11:38:20;;;;;;;36.92;20.50;;;5.10;57.30;;;;;;5006903;28;20235;-78
2021/11/26 11:40:49;;;;;;;33.95;20.60;;;5.20;57.20;;;;;;5003310;28;20264;-81
2021/11/26 11:43:19;;;;;;;35.60;20.38;;;5.40;56.70;;;;;;5000227;28;20204;-81
2021/11/26 11:45:58;;;;;;;36.72;20.30;;;5.30;56.70;;;;;;5007672;28;20666;-80
2021/11/26 11:48:27;;;;;;;36.88;19.70;;;5.30;56.50;;;;;;5004484;28;20204;-81
2021/11/26 11:50:54;;;;;;;33.85;21.08;;;5.30;56.50;;;;;;5005153;28;20235;-81
2021/11/26 11:53:29;;;;;;;35.22;20.38;;;5.10;56.40;;;;;;5026115;28;20675;-80
2021/11/26 11:56:07;;;;;;;35.65;20.27;;;5.10;57.10;;;;;;5005973;28;20671;-81
2021/11/26 11:58:46;;;;;;;33.22;19.95;;;5.10;57.40;;;;;;5028803;28;20216;-82
2021/11/26 12:01:21;;;;;;;30.65;18.67;;;5.10;57.60;;;;;;5031632;28;20234;-80
2021/11/26 12:03:53;;;;;;;31.35;20.05;;;5.10;57.50;;;;;;5031163;28;20231;-81
2021/11/26 12:06:23;;;;;;;35.70;19.95;;;5.00;57.50;;;;;;5033607;28;20232;-81
2021/11/26 12:08:55;;;;;;;33.95;19.40;;;5.00;58.00;;;;;;5015380;28;20215;-80
2021/11/26 12:11:32;;;;;;;34.20;19.90;;;5.10;57.90;;;;;;5011392;28;20209;-81
2021/11/26 12:14:03;;;;;;;32.40;19.15;;;5.00;58.20;;;;;;5032823;28;20373;-81
2021/11/26 12:16:31;;;;;;;36.03;18.73;;;5.10;57.80;;;;;;5014550;28;20199;-81
2021/11/26 12:19:03;;;;;;;35.38;20.73;;;5.10;58.00;;;;;;5013588;28;20255;-81
2021/11/26 12:21:36;;;;;;;34.15;18.38;;;5.20;58.40;;;;;;5016608;28;20226;-82
2021/11/26 12:24:08;;;;;;;31.95;19.08;;;5.30;57.80;;;;;;5031498;28;20240;-80
2021/11/26 12:26:52;;;;;;;31.33;19.40;;;5.40;57.80;;;;;;5031525;28;20234;-81
2021/11/26 12:29:22;;;;;;;34.83;19.85;;;5.20;57.50;;;;;;5007061;28;20278;-80
2021/11/26 12:31:51;;;;;;;35.38;19.85;;;5.10;58.00;;;;;;5003719;28;20224;-79
2021/11/26 12:34:20;;;;;;;36.90;19.73;;;5.20;58.70;;;;;;5020045;28;20236;-81
2021/11/26 12:36:53;;;;;;;33.83;19.48;;;5.20;58.20;;;;;;5017971;28;20200;-82
2021/11/26 12:39:23;;;;;;;35.92;19.70;;;5.30;58.10;;;;;;5018095;28;20691;-79
2021/11/26 12:41:52;;;;;;;33.17;18.70;;;5.40;58.60;;;;;;5016769;28;20663;-81
2021/11/26 12:44:23;;;;;;;33.22;18.52;;;5.50;58.10;;;;;;5016728;28;20200;-81
2021/11/26 12:46:56;;;;;;;34.38;19.60;;;5.50;57.50;;;;;;5015204;28;20203;-79
2021/11/26 12:52:05;;;;;;;32.28;18.35;;;5.60;57.30;;;;;;5010190;28;20223;-80